createdAt,value
2019-04-04T00:02:08.014Z,99491.63
2019-04-04T00:04:39.368Z,99490.60
2019-04-04T00:07:09.324Z,99496.50
2019-04-04T00:09:39.335Z,99498.97
2019-04-04T00:12:09.333Z,99498.28
2019-04-04T00:14:39.489Z,99500.09
2019-04-04T00:17:09.472Z,99506.81
2019-04-04T00:19:40.320Z,99522.27
2019-04-04T00:22:10.439Z,99519.78
2019-04-04T00:24:40.707Z,99518.89
2019-04-04T00:27:13.711Z,99502.06
2019-04-04T00:29:44.005Z,99475.73
2019-04-04T00:32:14.195Z,99482.32
2019-04-04T00:34:44.495Z,99490.22
2019-04-04T00:37:14.842Z,99492.22
2019-04-04T00:39:46.003Z,99483.84
2019-04-04T00:42:16.980Z,99470.19
2019-04-04T00:44:48.052Z,99474.42
2019-04-04T00:47:17.944Z,99484.64
2019-04-04T00:49:47.906Z,99497.81
2019-04-04T00:52:18.116Z,99497.46
2019-04-04T00:54:48.091Z,99497.95
2019-04-04T00:57:18.839Z,99499.75
2019-04-04T00:59:49.312Z,99492.34
2019-04-04T01:02:19.964Z,99490.83
2019-04-04T01:04:50.156Z,99493.59
2019-04-04T01:07:20.157Z,99491.94
2019-04-04T01:09:50.503Z,99487.45
2019-04-04T01:12:21.628Z,99481.50
2019-04-04T01:14:53.548Z,99486.77
2019-04-04T01:17:23.503Z,99483.48
2019-04-04T01:19:53.482Z,99484.45
2019-04-04T01:22:25.040Z,99486.05
2019-04-04T01:24:55.112Z,99481.07
2019-04-04T01:27:25.113Z,99474.29
2019-04-04T01:29:55.119Z,99462.25
2019-04-04T01:32:25.435Z,99451.69
2019-04-04T01:34:55.429Z,99457.92
2019-04-04T01:37:27.309Z,99466.45
2019-04-04T01:39:57.279Z,99462.16
2019-04-04T01:42:27.161Z,99454.27
2019-04-04T01:44:57.039Z,99446.86
2019-04-04T01:47:26.919Z,99430.88
2019-04-04T01:49:56.874Z,99433.64
2019-04-04T01:52:28.683Z,99434.41
2019-04-04T01:54:58.421Z,99426.01
2019-04-04T01:57:28.745Z,99428.44
2019-04-04T01:59:58.668Z,99430.09
2019-04-04T02:02:28.691Z,99423.17
2019-04-04T02:04:59.611Z,99434.81
2019-04-04T02:07:29.909Z,99427.69
2019-04-04T02:10:00.299Z,99427.63
2019-04-04T02:12:30.198Z,99419.56
2019-04-04T02:15:00.112Z,99416.73
2019-04-04T02:17:30.009Z,99417.08
2019-04-04T02:19:59.895Z,99401.58
2019-04-04T02:22:31.049Z,99386.43
2019-04-04T02:25:03.049Z,99389.34
2019-04-04T02:27:37.595Z,99385.86
2019-04-04T02:30:06.865Z,99388.63
2019-04-04T02:32:37.714Z,99394.03
2019-04-04T02:35:10.788Z,99392.23
2019-04-04T02:37:40.219Z,99383.31
2019-04-04T02:40:12.365Z,99381.64
2019-04-04T02:42:42.241Z,99387.05
2019-04-04T02:45:13.560Z,99382.82
2019-04-04T02:47:43.523Z,99393.75
2019-04-04T02:50:13.758Z,99393.43
2019-04-04T02:52:46.291Z,99394.95
2019-04-04T02:55:16.301Z,99403.87
2019-04-04T02:57:46.537Z,99406.70
2019-04-04T03:00:17.134Z,99409.19
2019-04-04T03:02:48.683Z,99409.88
2019-04-04T03:05:19.927Z,99408.56
2019-04-04T03:07:50.207Z,99405.27
2019-04-04T03:10:20.198Z,99392.13
2019-04-04T03:12:50.722Z,99384.41
2019-04-04T03:15:20.734Z,99382.58
2019-04-04T03:17:50.610Z,99370.56
2019-04-04T03:20:20.569Z,99374.45
2019-04-04T03:22:50.525Z,99391.34
2019-04-04T03:25:20.458Z,99386.58
2019-04-04T03:27:51.444Z,99394.60
2019-04-04T03:30:21.448Z,99401.52
2019-04-04T03:32:54.370Z,99381.66
2019-04-04T03:35:28.104Z,99389.75
2019-04-04T03:37:54.965Z,99403.23
2019-04-04T03:40:25.865Z,99415.08
2019-04-04T03:42:55.980Z,99417.22
2019-04-04T03:45:27.255Z,99415.08
2019-04-04T03:47:57.786Z,99399.78
2019-04-04T03:50:30.157Z,99390.09
2019-04-04T03:52:59.286Z,99383.17
2019-04-04T03:55:29.777Z,99387.32
2019-04-04T03:58:01.092Z,99385.86
2019-04-04T04:00:32.901Z,99383.37
2019-04-04T04:03:03.326Z,99383.03
2019-04-04T04:05:35.901Z,99376.94
2019-04-04T04:08:05.373Z,99380.89
2019-04-04T04:10:35.862Z,99379.92
2019-04-04T04:13:06.356Z,99378.95
2019-04-04T04:15:36.170Z,99379.62
2019-04-04T04:18:06.309Z,99371.74
2019-04-04T04:20:37.789Z,99359.42
2019-04-04T04:23:08.869Z,99362.53
2019-04-04T04:25:38.950Z,99358.39
2019-04-04T04:28:08.895Z,99346.70
2019-04-04T04:30:40.479Z,99354.94
2019-04-04T04:33:11.145Z,99352.16
2019-04-04T04:35:42.357Z,99352.02
2019-04-04T04:38:12.397Z,99357.10
2019-04-04T04:40:46.935Z,99352.67
2019-04-04T04:43:15.818Z,99345.61
2019-04-04T04:45:45.919Z,99350.72
2019-04-04T04:48:16.021Z,99342.84
2019-04-04T04:50:45.911Z,99356.67
2019-04-04T04:53:18.347Z,99365.19
2019-04-04T04:55:47.335Z,99359.24
2019-04-04T04:58:17.208Z,99372.73
2019-04-04T05:00:47.924Z,99366.16
2019-04-04T05:03:18.338Z,99359.94
2019-04-04T05:05:48.249Z,99371.08
2019-04-04T05:08:18.574Z,99370.45
2019-04-04T05:10:48.949Z,99364.22
2019-04-04T05:13:18.730Z,99375.23
2019-04-04T05:15:48.605Z,99376.05
2019-04-04T05:18:18.883Z,99384.92
2019-04-04T05:20:48.782Z,99384.72
2019-04-04T05:23:18.724Z,99385.20
2019-04-04T05:25:54.029Z,99385.55
2019-04-04T05:28:21.734Z,99390.47
2019-04-04T05:30:51.704Z,99395.41
2019-04-04T05:33:23.042Z,99386.49
2019-04-04T05:35:52.929Z,99397.02
2019-04-04T05:38:22.902Z,99397.35
2019-04-04T05:40:53.272Z,99396.38
2019-04-04T05:43:24.451Z,99391.61
2019-04-04T05:45:54.316Z,99387.69
2019-04-04T05:48:24.314Z,99379.94
2019-04-04T05:50:54.162Z,99372.39
2019-04-04T05:53:24.023Z,99384.63
2019-04-04T05:55:53.841Z,99376.59
2019-04-04T05:58:23.651Z,99386.49
2019-04-04T06:00:53.604Z,99396.24
2019-04-04T06:03:23.387Z,99392.98
2019-04-04T06:05:53.341Z,99392.64
2019-04-04T06:08:23.324Z,99395.44
2019-04-04T06:10:53.702Z,99404.50
2019-04-04T06:13:25.033Z,99407.97
2019-04-04T06:15:55.411Z,99411.28
2019-04-04T06:18:25.647Z,99421.17
2019-04-04T06:20:56.605Z,99425.95
2019-04-04T06:23:26.528Z,99416.60
2019-04-04T06:25:56.507Z,99415.00
2019-04-04T06:28:26.429Z,99422.09
2019-04-04T06:30:56.288Z,99418.83
2019-04-04T06:33:26.286Z,99423.45
2019-04-04T06:35:56.366Z,99420.54
2019-04-04T06:38:26.414Z,99426.00
2019-04-04T06:40:56.268Z,99424.88
2019-04-04T06:43:26.255Z,99425.39
2019-04-04T06:45:56.108Z,99431.20
2019-04-04T06:48:29.338Z,99426.28
2019-04-04T06:51:00.411Z,99428.27
2019-04-04T06:53:30.707Z,99431.25
2019-04-04T06:56:01.027Z,99425.35
2019-04-04T06:58:32.441Z,99423.20
2019-04-04T07:01:02.202Z,99423.35
2019-04-04T07:03:32.043Z,99426.67
2019-04-04T07:06:01.883Z,99425.70
2019-04-04T07:08:32.097Z,99425.55
2019-04-04T07:11:03.236Z,99434.93
2019-04-04T07:13:42.172Z,99435.95
2019-04-04T07:16:07.681Z,99432.55
2019-04-04T07:18:36.799Z,99437.17
2019-04-04T07:21:07.673Z,99437.03
2019-04-04T07:23:37.445Z,99438.06
2019-04-04T07:26:09.612Z,99434.76
2019-04-04T07:28:38.918Z,99439.44
2019-04-04T07:31:09.092Z,99439.34
2019-04-04T07:33:38.922Z,99440.19
2019-04-04T07:36:08.753Z,99444.67
2019-04-04T07:38:38.849Z,99447.66
2019-04-04T07:41:09.080Z,99435.84
2019-04-04T07:43:39.496Z,99443.80
2019-04-04T07:46:16.318Z,99447.42
2019-04-04T07:48:41.383Z,99458.48
2019-04-04T07:51:12.189Z,99452.73
2019-04-04T07:53:42.025Z,99455.07
2019-04-04T07:56:13.909Z,99453.48
2019-04-04T07:58:43.576Z,99452.67
2019-04-04T08:01:13.515Z,99455.35
2019-04-04T08:03:44.444Z,99448.61
2019-04-04T08:06:14.367Z,99452.91
2019-04-04T08:08:44.222Z,99455.39
2019-04-04T08:11:14.137Z,99460.66
2019-04-04T08:13:43.978Z,99457.34
2019-04-04T08:16:13.908Z,99463.79
2019-04-04T08:18:43.758Z,99469.89
2019-04-04T08:21:13.931Z,99455.73
2019-04-04T08:23:43.874Z,99458.86
2019-04-04T08:26:13.727Z,99452.75
2019-04-04T08:28:44.103Z,99444.36
2019-04-04T08:31:13.959Z,99451.14
2019-04-04T08:33:44.136Z,99452.47
2019-04-04T08:36:14.357Z,99461.73
2019-04-04T08:38:44.191Z,99465.54
2019-04-04T08:41:14.388Z,99464.07
2019-04-04T08:43:44.228Z,99464.75
2019-04-04T08:46:14.296Z,99449.61
2019-04-04T08:48:44.148Z,99450.93
2019-04-04T08:51:14.985Z,99452.44
2019-04-04T08:53:44.903Z,99451.61
2019-04-04T08:56:14.698Z,99458.20
2019-04-04T08:58:44.580Z,99453.91
2019-04-04T09:01:14.348Z,99456.88
2019-04-04T09:03:44.191Z,99461.48
2019-04-04T09:06:14.457Z,99466.45
2019-04-04T09:08:44.301Z,99460.05
2019-04-04T09:11:14.244Z,99472.11
2019-04-04T09:13:44.079Z,99476.74
2019-04-04T09:16:14.060Z,99472.78
2019-04-04T09:18:43.877Z,99473.13
2019-04-04T09:21:13.808Z,99472.15
2019-04-04T09:23:43.962Z,99469.84
2019-04-04T09:26:13.842Z,99474.79
2019-04-04T09:28:43.610Z,99475.62
2019-04-04T09:31:13.539Z,99477.13
2019-04-04T09:33:43.638Z,99474.79
2019-04-04T09:36:13.497Z,99467.55
2019-04-04T09:38:43.443Z,99473.81
2019-04-04T09:41:13.368Z,99473.47
2019-04-04T09:43:43.300Z,99468.88
2019-04-04T09:46:13.234Z,99475.31
2019-04-04T09:48:43.173Z,99486.20
2019-04-04T09:51:13.321Z,99485.56
2019-04-04T09:53:52.941Z,99483.61
2019-04-04T09:56:14.808Z,99485.94
2019-04-04T09:58:44.732Z,99494.01
2019-04-04T10:01:14.699Z,99494.69
2019-04-04T10:03:44.628Z,99485.94
2019-04-04T10:06:14.851Z,99482.33
2019-04-04T10:08:45.534Z,99483.00
2019-04-04T10:11:15.800Z,99486.80
2019-04-04T10:13:45.660Z,99482.36
2019-04-04T10:16:15.563Z,99482.05
2019-04-04T10:18:45.712Z,99487.18
2019-04-04T10:21:15.549Z,99474.33
2019-04-04T10:23:45.323Z,99478.62
2019-04-04T10:26:15.514Z,99486.88
2019-04-04T10:28:45.628Z,99485.55
2019-04-04T10:31:15.541Z,99489.17
2019-04-04T10:33:45.480Z,99474.51
2019-04-04T10:36:15.674Z,99463.62
2019-04-04T10:38:45.562Z,99459.35
2019-04-04T10:41:15.456Z,99453.92
2019-04-04T10:43:45.393Z,99444.19
2019-04-04T10:46:15.312Z,99460.34
2019-04-04T10:48:45.198Z,99459.53
2019-04-04T10:51:15.417Z,99463.34
2019-04-04T10:53:45.279Z,99478.87
2019-04-04T10:56:15.047Z,99478.03
2019-04-04T10:58:44.922Z,99473.77
2019-04-04T11:01:14.841Z,99474.08
2019-04-04T11:03:44.687Z,99472.39
2019-04-04T11:06:14.544Z,99484.27
2019-04-04T11:08:44.668Z,99502.09
2019-04-04T11:11:14.508Z,99510.36
2019-04-04T11:13:44.439Z,99516.31
2019-04-04T11:16:14.313Z,99511.33
2019-04-04T11:18:44.177Z,99522.88
2019-04-04T11:21:14.079Z,99520.20
2019-04-04T11:23:44.003Z,99516.55
2019-04-04T11:26:13.876Z,99523.78
2019-04-04T11:28:43.655Z,99527.25
2019-04-04T11:31:13.618Z,99518.54
2019-04-04T11:33:43.524Z,99510.96
2019-04-04T11:36:13.447Z,99513.30
2019-04-04T11:38:44.262Z,99521.22
2019-04-04T11:41:14.280Z,99524.87
2019-04-04T11:43:44.143Z,99516.31
2019-04-04T11:46:14.348Z,99516.27
2019-04-04T11:48:44.289Z,99513.79
2019-04-04T11:51:14.198Z,99524.53
2019-04-04T11:53:44.552Z,99536.78
2019-04-04T11:56:14.391Z,99538.09
2019-04-04T11:58:44.240Z,99531.50
2019-04-04T12:01:14.871Z,99535.31
2019-04-04T12:03:44.895Z,99536.11
2019-04-04T12:06:14.735Z,99540.73
2019-04-04T12:08:44.494Z,99559.70
2019-04-04T12:11:14.420Z,99560.84
2019-04-04T12:13:44.174Z,99561.33
2019-04-04T12:16:14.096Z,99554.20
2019-04-04T12:18:43.853Z,99553.71
2019-04-04T12:21:13.802Z,99553.03
2019-04-04T12:23:43.897Z,99562.80
2019-04-04T12:26:15.181Z,99566.45
2019-04-04T12:28:45.132Z,99566.45
2019-04-04T12:31:15.230Z,99554.24
2019-04-04T12:33:45.058Z,99538.59
2019-04-04T12:36:23.982Z,99540.89
2019-04-04T12:38:47.219Z,99535.45
2019-04-04T12:41:17.058Z,99532.82
2019-04-04T12:43:47.143Z,99531.31
2019-04-04T12:46:19.543Z,99532.98
2019-04-04T12:48:48.565Z,99524.23
2019-04-04T12:51:18.461Z,99526.87
2019-04-04T12:53:48.330Z,99533.31
2019-04-04T12:56:18.174Z,99540.09
2019-04-04T12:58:48.319Z,99542.09
2019-04-04T13:01:21.266Z,99538.63
2019-04-04T13:03:51.174Z,99531.84
2019-04-04T13:06:21.770Z,99541.91
2019-04-04T13:08:51.711Z,99554.28
2019-04-04T13:11:21.907Z,99551.14
2019-04-04T13:13:51.987Z,99550.66
2019-04-04T13:16:21.753Z,99562.56
2019-04-04T13:18:51.601Z,99587.83
2019-04-04T13:21:21.764Z,99596.73
2019-04-04T13:23:51.631Z,99600.50
2019-04-04T13:26:21.411Z,99591.91
2019-04-04T13:28:51.609Z,99594.02
2019-04-04T13:31:21.545Z,99602.09
2019-04-04T13:33:51.307Z,99599.94
2019-04-04T13:36:21.176Z,99608.05
2019-04-04T13:38:50.980Z,99610.00
2019-04-04T13:41:22.167Z,99617.23
2019-04-04T13:43:53.586Z,99618.70
2019-04-04T13:46:25.895Z,99618.03
2019-04-04T13:48:56.077Z,99619.84
2019-04-04T13:51:26.200Z,99627.61
2019-04-04T13:53:56.056Z,99626.44
2019-04-04T13:56:25.933Z,99617.64
2019-04-04T13:58:55.784Z,99611.53
2019-04-04T14:01:25.723Z,99617.64
2019-04-04T14:03:56.436Z,99633.95
2019-04-04T14:06:26.394Z,99638.25
2019-04-04T14:08:56.681Z,99649.30
2019-04-04T14:11:27.720Z,99657.52
2019-04-04T14:13:58.903Z,99668.36
2019-04-04T14:16:29.130Z,99678.38
2019-04-04T14:18:59.658Z,99679.50
2019-04-04T14:21:29.593Z,99673.23
2019-04-04T14:24:12.329Z,99671.38
2019-04-04T14:26:32.011Z,99657.84
2019-04-04T14:29:04.481Z,99652.72
2019-04-04T14:31:33.894Z,99661.41
2019-04-04T14:34:03.785Z,99670.79
2019-04-04T14:36:33.612Z,99677.88
2019-04-04T14:39:05.896Z,99665.84
2019-04-04T14:41:35.921Z,99661.40
2019-04-04T14:44:06.060Z,99660.71
2019-04-04T14:46:37.159Z,99659.05
2019-04-04T14:49:07.607Z,99649.48
2019-04-04T14:51:37.446Z,99665.69
2019-04-04T14:54:07.395Z,99684.95
2019-04-04T14:56:37.566Z,99689.97
2019-04-04T14:59:07.492Z,99696.56
2019-04-04T15:01:37.800Z,99702.41
2019-04-04T15:04:08.098Z,99695.11
2019-04-04T15:06:38.017Z,99681.84
2019-04-04T15:09:10.812Z,99661.24
2019-04-04T15:11:40.761Z,99659.78
2019-04-04T15:14:10.617Z,99661.68
2019-04-04T15:16:40.549Z,99663.20
2019-04-04T15:19:10.324Z,99666.63
2019-04-04T15:21:40.176Z,99679.81
2019-04-04T15:24:09.961Z,99699.43
2019-04-04T15:26:39.950Z,99701.41
2019-04-04T15:29:09.755Z,99702.73
2019-04-04T15:31:39.588Z,99701.72
2019-04-04T15:34:09.375Z,99704.70
2019-04-04T15:36:39.157Z,99702.67
2019-04-04T15:39:09.090Z,99702.58
2019-04-04T15:41:39.025Z,99704.95
2019-04-04T15:44:08.796Z,99709.19
2019-04-04T15:46:38.850Z,99720.91
2019-04-04T15:49:09.384Z,99720.98
2019-04-04T15:51:39.495Z,99725.45
2019-04-04T15:54:09.587Z,99731.03
2019-04-04T15:56:39.787Z,99732.83
2019-04-04T15:59:09.658Z,99744.34
2019-04-04T16:01:39.573Z,99757.61
2019-04-04T16:04:09.884Z,99751.99
2019-04-04T16:06:39.800Z,99742.91
2019-04-04T16:09:09.852Z,99748.67
2019-04-04T16:11:49.421Z,99759.13
2019-04-04T16:14:11.596Z,99752.55
2019-04-04T16:16:41.769Z,99742.98
2019-04-04T16:19:11.931Z,99734.73
2019-04-04T16:21:41.891Z,99728.83
2019-04-04T16:24:11.753Z,99729.70
2019-04-04T16:26:41.905Z,99730.59
2019-04-04T16:29:12.105Z,99726.39
2019-04-04T16:31:41.965Z,99719.86
2019-04-04T16:34:11.817Z,99702.18
2019-04-04T16:36:41.633Z,99698.63
2019-04-04T16:39:11.523Z,99707.02
2019-04-04T16:41:41.983Z,99724.34
2019-04-04T16:44:11.840Z,99737.97
2019-04-04T16:46:42.225Z,99739.28
2019-04-04T16:49:12.075Z,99742.75
2019-04-04T16:51:42.002Z,99748.19
2019-04-04T16:54:12.167Z,99760.39
2019-04-04T16:56:42.274Z,99763.58
2019-04-04T16:59:12.408Z,99767.73
2019-04-04T17:01:42.340Z,99764.76
2019-04-04T17:04:12.531Z,99774.55
2019-04-04T17:06:42.434Z,99775.34
2019-04-04T17:09:12.583Z,99772.02
2019-04-04T17:11:42.453Z,99784.20
2019-04-04T17:14:12.382Z,99792.24
2019-04-04T17:16:42.233Z,99796.41
2019-04-04T17:19:12.079Z,99785.86
2019-04-04T17:21:41.999Z,99783.50
2019-04-04T17:24:12.142Z,99786.25
2019-04-04T17:26:41.986Z,99800.32
2019-04-04T17:29:13.127Z,99794.08
2019-04-04T17:31:43.350Z,99802.74
2019-04-04T17:34:14.776Z,99801.77
2019-04-04T17:36:44.728Z,99811.97
2019-04-04T17:39:14.829Z,99815.91
2019-04-04T17:41:44.732Z,99825.76
2019-04-04T17:44:14.718Z,99827.87
2019-04-04T17:46:44.789Z,99827.72
2019-04-04T17:49:14.918Z,99817.06
2019-04-04T17:51:44.815Z,99808.53
2019-04-04T17:54:15.153Z,99809.80
2019-04-04T17:56:45.881Z,99803.70
2019-04-04T17:59:16.404Z,99800.91
2019-04-04T18:01:46.621Z,99803.88
2019-04-04T18:04:16.542Z,99809.80
2019-04-04T18:06:46.400Z,99822.62
2019-04-04T18:09:17.312Z,99835.09
2019-04-04T18:11:47.517Z,99840.75
2019-04-04T18:14:17.433Z,99848.51
2019-04-04T18:16:47.380Z,99852.81
2019-04-04T18:19:17.227Z,99862.24
2019-04-04T18:21:47.085Z,99862.24
2019-04-04T18:24:17.280Z,99871.45
2019-04-04T18:26:47.214Z,99883.44
2019-04-04T18:29:17.145Z,99885.16
2019-04-04T18:31:46.966Z,99875.68
2019-04-04T18:34:18.321Z,99873.23
2019-04-04T18:36:48.534Z,99865.06
2019-04-04T18:39:18.722Z,99855.72
2019-04-04T18:41:48.683Z,99868.31
2019-04-04T18:44:18.544Z,99872.00
2019-04-04T18:46:48.401Z,99863.21
2019-04-04T18:49:18.328Z,99855.45
2019-04-04T18:51:48.294Z,99869.63
2019-04-04T18:54:18.147Z,99875.86
2019-04-04T18:56:48.729Z,99883.58
2019-04-04T18:59:18.668Z,99886.17
2019-04-04T19:01:48.511Z,99881.16
2019-04-04T19:04:18.978Z,99885.45
2019-04-04T19:06:49.106Z,99881.09
2019-04-04T19:09:19.460Z,99880.69
2019-04-04T19:11:50.441Z,99884.80
2019-04-04T19:14:20.215Z,99886.92
2019-04-04T19:16:50.134Z,99891.48
2019-04-04T19:19:19.995Z,99891.89
2019-04-04T19:21:49.849Z,99889.09
2019-04-04T19:24:19.780Z,99874.62
2019-04-04T19:26:49.692Z,99884.00
2019-04-04T19:29:19.768Z,99890.42
2019-04-04T19:31:49.693Z,99890.58
2019-04-04T19:34:19.550Z,99895.55
2019-04-04T19:36:49.389Z,99897.72
2019-04-04T19:39:19.403Z,99897.11
2019-04-04T19:41:49.249Z,99899.62
2019-04-04T19:44:19.194Z,99913.37
2019-04-04T19:46:49.525Z,99912.91
2019-04-04T19:49:19.639Z,99910.22
2019-04-04T19:51:49.480Z,99912.39
2019-04-04T19:54:19.772Z,99911.33
2019-04-04T19:56:49.692Z,99907.38
2019-04-04T19:59:19.622Z,99915.02
2019-04-04T20:01:49.471Z,99913.09
2019-04-04T20:04:19.335Z,99908.91
2019-04-04T20:06:49.249Z,99905.22
2019-04-04T20:09:20.450Z,99908.95
2019-04-04T20:11:50.387Z,99913.78
2019-04-04T20:14:20.222Z,99915.91
2019-04-04T20:16:50.103Z,99917.25
2019-04-04T20:19:20.002Z,99916.77
2019-04-04T20:21:49.861Z,99916.04
2019-04-04T20:24:19.718Z,99915.22
2019-04-04T20:26:49.570Z,99923.28
2019-04-04T20:29:19.338Z,99924.70
2019-04-04T20:31:49.777Z,99922.17
2019-04-04T20:34:19.645Z,99933.27
2019-04-04T20:36:49.491Z,99936.38
2019-04-04T20:39:19.724Z,99937.36
2019-04-04T20:41:49.842Z,99932.33
2019-04-04T20:44:19.765Z,99926.77
2019-04-04T20:46:49.550Z,99926.26
2019-04-04T20:49:19.781Z,99934.25
2019-04-04T20:51:49.569Z,99937.55
2019-04-04T20:54:19.347Z,99940.63
2019-04-04T20:56:49.239Z,99936.44
2019-04-04T20:59:19.342Z,99938.81
2019-04-04T21:01:49.615Z,99941.50
2019-04-04T21:04:19.466Z,99950.94
2019-04-04T21:06:49.358Z,99958.57
2019-04-04T21:09:19.204Z,99961.07
2019-04-04T21:11:49.009Z,99962.52
2019-04-04T21:14:18.786Z,99973.88
2019-04-04T21:16:48.951Z,99969.92
2019-04-04T21:19:18.796Z,99965.40
2019-04-04T21:21:48.723Z,99966.06
2019-04-04T21:24:18.576Z,99971.93
2019-04-04T21:26:48.352Z,99973.86
2019-04-04T21:29:18.122Z,99965.00
2019-04-04T21:31:48.233Z,99962.95
2019-04-04T21:34:18.020Z,99960.91
2019-04-04T21:36:48.044Z,99956.67
2019-04-04T21:39:18.900Z,99963.00
2019-04-04T21:41:48.752Z,99972.68
2019-04-04T21:44:19.938Z,99969.63
2019-04-04T21:46:49.808Z,99972.89
2019-04-04T21:49:20.819Z,99965.00
2019-04-04T21:51:50.766Z,99976.11
2019-04-04T21:54:20.612Z,99973.06
2019-04-04T21:56:50.550Z,99972.10
2019-04-04T21:59:20.320Z,99975.50
2019-04-04T22:01:50.243Z,99974.56
2019-04-04T22:04:20.288Z,99975.06
2019-04-04T22:06:51.202Z,99972.72
2019-04-04T22:09:21.453Z,99962.96
2019-04-04T22:11:51.310Z,99967.45
2019-04-04T22:14:22.369Z,99978.09
2019-04-04T22:16:52.213Z,99984.31
2019-04-04T22:19:22.069Z,99988.85
2019-04-04T22:21:51.910Z,99989.94
2019-04-04T22:24:22.468Z,99988.31
2019-04-04T22:26:52.541Z,99980.78
2019-04-04T22:29:22.785Z,99980.09
2019-04-04T22:31:52.810Z,99984.88
2019-04-04T22:34:23.128Z,99992.76
2019-04-04T22:36:53.115Z,100002.80
2019-04-04T22:39:23.400Z,100014.98
2019-04-04T22:41:53.669Z,100024.06
2019-04-04T22:44:34.076Z,100029.11
2019-04-04T22:46:55.159Z,100013.00
2019-04-04T22:49:25.112Z,100012.28
2019-04-04T22:51:54.984Z,100008.66
2019-04-04T22:54:24.835Z,100004.71
2019-04-04T22:56:54.809Z,99994.33
2019-04-04T22:59:25.671Z,99990.55
2019-04-04T23:01:55.639Z,100000.23
2019-04-04T23:04:25.663Z,100005.83
2019-04-04T23:06:55.472Z,100015.75
2019-04-04T23:09:25.370Z,100009.06
2019-04-04T23:11:55.312Z,100006.44
2019-04-04T23:14:25.169Z,100002.89
2019-04-04T23:16:55.489Z,100007.67
2019-04-04T23:19:25.472Z,100014.83
2019-04-04T23:21:55.751Z,100012.08
2019-04-04T23:24:25.781Z,100006.23
2019-04-04T23:26:55.633Z,100018.77
2019-04-04T23:29:25.586Z,100024.02
2019-04-04T23:31:55.909Z,100031.06
2019-04-04T23:34:25.764Z,100025.33
2019-04-04T23:36:55.700Z,100026.52
2019-04-04T23:39:25.619Z,100020.28
2019-04-04T23:41:55.715Z,100027.20
2019-04-04T23:44:27.202Z,100030.91
2019-04-04T23:46:57.348Z,100033.97
2019-04-04T23:49:27.266Z,100037.67
2019-04-04T23:51:57.130Z,100042.68
2019-04-04T23:54:27.085Z,100040.77
2019-04-04T23:56:56.899Z,100049.24
2019-04-04T23:59:27.109Z,100050.77
